Terminal Aerodrome Forecast
Issued by NWS

Home | Current Version | Previous Version | Text Only | Print | Product List | Glossary On
Versions: 1 2 3 4 5 6 7 8 9 10 11 12
000
FTUS46 KPDT 161100
TAFPSC
TAF
KPSC 161136Z 1612/1712 35004KT P6SM FEW140 SCT160 BKN200
     FM161600 VRB05KT P6SM FEW250
     FM162100 34007KT P6SM SKC
     FM170400 18003KT P6SM SCT160 BKN200=

USA.gov is the U.S. government's official web portal to all federal, state and local government web resources and services.